createdAt,value
2022-10-30T00:01:48.649Z,15.60
2022-10-30T00:04:15.281Z,15.50
2022-10-30T00:06:42.082Z,15.50
2022-10-30T00:09:08.820Z,15.50
2022-10-30T00:11:35.482Z,15.50
2022-10-30T00:14:02.330Z,15.40
2022-10-30T00:16:29.045Z,15.40
2022-10-30T00:18:55.855Z,15.40
2022-10-30T00:21:22.424Z,15.40
2022-10-30T00:23:51.056Z,15.30
2022-10-30T00:26:18.901Z,15.30
2022-10-30T00:28:49.046Z,15.30
2022-10-30T00:31:15.729Z,15.30
2022-10-30T00:33:42.253Z,15.20
2022-10-30T00:38:55.466Z,15.20
2022-10-30T00:41:23.262Z,15.20
2022-10-30T00:43:50.266Z,15.10
2022-10-30T00:46:19.805Z,15.20
2022-10-30T00:48:49.443Z,15.10
2022-10-30T00:51:16.867Z,15.10
2022-10-30T00:53:43.821Z,15.10
2022-10-30T00:56:11.347Z,15.10
2022-10-30T00:58:39.651Z,15.10
2022-10-30T01:01:09.472Z,15.10
2022-10-30T01:03:36.527Z,15.10
2022-10-30T01:06:04.869Z,15.00
2022-10-30T01:08:31.712Z,15.00
2022-10-30T01:10:59.797Z,15.00
2022-10-30T01:13:27.021Z,15.00
2022-10-30T01:16:17.803Z,15.00
2022-10-30T01:19:03.284Z,15.00
2022-10-30T01:21:43.494Z,15.00
2022-10-30T01:24:28.794Z,14.90
2022-10-30T01:26:55.388Z,14.90
2022-10-30T01:29:22.252Z,14.90
2022-10-30T01:31:51.925Z,14.80
2022-10-30T01:34:28.981Z,14.80
2022-10-30T01:37:15.783Z,14.80
2022-10-30T01:39:42.343Z,14.80
2022-10-30T01:42:27.931Z,14.80
2022-10-30T01:44:55.473Z,14.70
2022-10-30T01:47:22.134Z,14.70
2022-10-30T01:49:48.883Z,14.70
2022-10-30T01:52:24.723Z,14.70
2022-10-30T01:55:10.058Z,14.70
2022-10-30T01:57:48.087Z,14.70
2022-10-30T02:00:15.914Z,14.70
2022-10-30T02:02:44.254Z,14.70
2022-10-30T02:05:13.305Z,14.70
2022-10-30T02:07:39.855Z,14.70
2022-10-30T02:10:06.798Z,14.70
2022-10-30T02:12:33.666Z,14.70
2022-10-30T02:15:00.651Z,14.60
2022-10-30T02:17:27.799Z,14.60
2022-10-30T02:19:54.350Z,14.60
2022-10-30T02:22:21.099Z,14.60
2022-10-30T02:24:47.792Z,14.60
2022-10-30T02:27:14.490Z,14.50
2022-10-30T02:29:41.053Z,14.50
2022-10-30T02:32:07.671Z,14.50
2022-10-30T02:34:34.377Z,14.50
2022-10-30T02:37:01.062Z,14.50
2022-10-30T02:39:28.806Z,14.50
2022-10-30T02:41:55.586Z,14.40
2022-10-30T02:44:22.344Z,14.40
2022-10-30T02:46:48.897Z,14.40
2022-10-30T02:49:15.745Z,14.40
2022-10-30T02:51:42.292Z,14.40
2022-10-30T02:54:08.855Z,14.30
2022-10-30T02:56:35.502Z,14.30
2022-10-30T02:59:02.256Z,14.30
2022-10-30T03:01:28.871Z,14.30
2022-10-30T03:03:55.477Z,14.20
2022-10-30T03:06:22.043Z,14.30
2022-10-30T03:08:48.594Z,14.30
2022-10-30T03:11:16.407Z,14.20
2022-10-30T03:13:44.129Z,14.20
2022-10-30T03:16:12.122Z,14.20
2022-10-30T03:18:38.731Z,14.20
2022-10-30T03:21:06.502Z,14.20
2022-10-30T03:23:33.479Z,14.20
2022-10-30T03:26:00.174Z,14.20
2022-10-30T03:28:28.045Z,14.20
2022-10-30T03:31:01.817Z,14.20
2022-10-30T03:33:28.880Z,14.20
2022-10-30T03:35:57.237Z,14.20
2022-10-30T03:38:24.013Z,14.20
2022-10-30T03:40:50.654Z,14.20
2022-10-30T03:43:17.521Z,14.20
2022-10-30T03:45:48.465Z,14.20
2022-10-30T03:48:15.537Z,14.20
2022-10-30T03:50:42.222Z,14.20
2022-10-30T03:53:08.885Z,14.10
2022-10-30T03:55:35.580Z,14.10
2022-10-30T03:58:02.151Z,14.10
2022-10-30T04:00:28.701Z,14.10
2022-10-30T04:02:55.667Z,14.10
2022-10-30T04:05:23.479Z,14.10
2022-10-30T04:07:55.018Z,14.10
2022-10-30T04:10:23.885Z,14.10
2022-10-30T04:12:51.059Z,14.00
2022-10-30T04:15:17.881Z,14.00
2022-10-30T04:17:51.207Z,14.00
2022-10-30T04:20:18.194Z,14.00
2022-10-30T04:22:44.872Z,14.00
2022-10-30T04:25:11.390Z,14.00
2022-10-30T04:27:42.728Z,13.90
2022-10-30T04:30:12.773Z,13.90
2022-10-30T04:32:46.006Z,13.90
2022-10-30T04:35:12.539Z,13.90
2022-10-30T04:37:39.121Z,13.90
2022-10-30T04:40:06.155Z,13.90
2022-10-30T04:42:33.016Z,13.80
2022-10-30T04:45:05.108Z,13.80
2022-10-30T04:49:59.490Z,13.80
2022-10-30T04:52:26.057Z,13.80
2022-10-30T04:54:52.569Z,13.80
2022-10-30T04:57:19.125Z,13.80
2022-10-30T04:59:45.821Z,13.80
2022-10-30T05:02:12.558Z,13.70
2022-10-30T05:04:39.373Z,13.70
2022-10-30T05:07:06.992Z,13.70
2022-10-30T05:09:36.077Z,13.70
2022-10-30T05:12:02.613Z,13.70
2022-10-30T05:14:32.722Z,13.60
2022-10-30T05:16:59.423Z,13.60
2022-10-30T05:19:26.500Z,13.60
2022-10-30T05:21:53.288Z,13.60
2022-10-30T05:24:19.828Z,13.60
2022-10-30T05:26:46.429Z,13.50
2022-10-30T05:29:13.268Z,13.50
2022-10-30T05:31:40.098Z,13.50
2022-10-30T05:34:08.299Z,13.50
2022-10-30T05:36:34.850Z,13.50
2022-10-30T05:39:02.879Z,13.40
2022-10-30T05:41:29.653Z,13.40
2022-10-30T05:43:56.610Z,13.40
2022-10-30T05:46:23.210Z,13.40
2022-10-30T05:48:49.750Z,13.40
2022-10-30T05:51:16.258Z,13.30
2022-10-30T05:53:42.830Z,13.30
2022-10-30T05:56:09.746Z,13.30
2022-10-30T05:58:36.422Z,13.30
2022-10-30T06:01:10.217Z,13.30
2022-10-30T06:03:36.953Z,13.30
2022-10-30T06:06:03.527Z,13.20
2022-10-30T06:08:30.096Z,13.20
2022-10-30T06:10:56.672Z,13.20
2022-10-30T06:13:23.229Z,13.20
2022-10-30T06:15:49.743Z,13.20
2022-10-30T06:18:16.439Z,13.10
2022-10-30T06:20:43.202Z,13.10
2022-10-30T06:23:12.749Z,13.20
2022-10-30T06:25:41.502Z,13.20
2022-10-30T06:28:10.215Z,13.20
2022-10-30T06:30:36.861Z,13.20
2022-10-30T06:33:04.610Z,13.20
2022-10-30T06:35:31.296Z,13.20
2022-10-30T06:38:00.176Z,13.20
2022-10-30T06:40:27.414Z,13.20
2022-10-30T06:42:54.214Z,13.20
2022-10-30T06:45:22.256Z,13.20
2022-10-30T06:47:48.929Z,13.20
2022-10-30T06:50:17.331Z,13.20
2022-10-30T06:52:44.367Z,13.20
2022-10-30T06:55:11.010Z,13.20
2022-10-30T06:57:37.818Z,13.20
2022-10-30T07:00:05.650Z,13.20
2022-10-30T07:02:32.289Z,13.20
2022-10-30T07:04:58.941Z,13.20
2022-10-30T07:07:25.461Z,13.30
2022-10-30T07:09:52.057Z,13.30
2022-10-30T07:12:18.639Z,13.30
2022-10-30T07:14:45.478Z,13.30
2022-10-30T07:17:12.045Z,13.30
2022-10-30T07:19:38.779Z,13.30
2022-10-30T07:22:05.309Z,13.30
2022-10-30T07:24:31.833Z,13.30
2022-10-30T07:26:58.387Z,13.30
2022-10-30T07:29:24.921Z,13.40
2022-10-30T07:32:02.145Z,13.40
2022-10-30T07:34:29.853Z,13.30
2022-10-30T07:36:56.457Z,13.40
2022-10-30T07:39:23.022Z,13.40
2022-10-30T07:41:50.716Z,13.40
2022-10-30T07:44:17.512Z,13.50
2022-10-30T07:46:44.180Z,13.50
2022-10-30T07:49:10.754Z,13.50
2022-10-30T07:51:37.521Z,13.60
2022-10-30T07:54:04.064Z,13.60
2022-10-30T07:56:30.776Z,13.70
2022-10-30T07:58:57.574Z,13.70
2022-10-30T08:01:24.226Z,13.80
2022-10-30T08:03:51.013Z,13.80
2022-10-30T08:06:20.127Z,13.90
2022-10-30T08:08:49.690Z,13.90
2022-10-30T08:11:16.349Z,14.00
2022-10-30T08:13:42.879Z,14.10
2022-10-30T08:16:09.442Z,14.20
2022-10-30T08:18:36.020Z,14.20
2022-10-30T08:21:02.750Z,14.30
2022-10-30T08:23:29.440Z,14.50
2022-10-30T08:26:00.500Z,14.50
2022-10-30T08:28:31.556Z,14.60
2022-10-30T08:31:00.023Z,14.80
2022-10-30T08:33:26.777Z,14.90
2022-10-30T08:35:56.533Z,15.00
2022-10-30T08:38:23.214Z,15.10
2022-10-30T08:40:49.907Z,15.20
2022-10-30T08:43:17.128Z,15.20
2022-10-30T08:45:43.722Z,15.30
2022-10-30T08:48:11.505Z,15.40
2022-10-30T08:50:38.058Z,15.50
2022-10-30T08:53:05.978Z,15.60
2022-10-30T08:55:32.765Z,15.70
2022-10-30T08:57:59.343Z,15.80
2022-10-30T09:00:26.373Z,15.80
2022-10-30T09:02:53.276Z,16.00
2022-10-30T09:05:20.226Z,16.00
2022-10-30T09:07:47.498Z,16.10
2022-10-30T09:10:14.458Z,16.20
2022-10-30T09:12:41.023Z,16.30
2022-10-30T09:15:08.039Z,16.40
2022-10-30T09:17:35.618Z,16.40
2022-10-30T09:20:02.240Z,16.50
2022-10-30T09:22:28.818Z,16.60
2022-10-30T09:24:55.302Z,16.60
2022-10-30T09:27:21.881Z,16.70
2022-10-30T09:29:48.419Z,16.70
2022-10-30T09:32:14.922Z,16.80
2022-10-30T09:34:42.034Z,16.90
2022-10-30T09:37:08.569Z,17.00
2022-10-30T09:39:35.071Z,17.00
2022-10-30T09:42:01.582Z,17.20
2022-10-30T09:44:52.469Z,17.30
2022-10-30T09:47:33.104Z,17.40
2022-10-30T09:50:11.720Z,17.50
2022-10-30T09:52:38.182Z,17.60
2022-10-30T09:55:10.962Z,17.60
2022-10-30T09:57:50.719Z,17.70
2022-10-30T10:00:19.583Z,17.70
2022-10-30T10:02:46.346Z,17.70
2022-10-30T10:05:21.401Z,17.80
2022-10-30T10:07:49.990Z,17.80
2022-10-30T10:10:22.695Z,17.80
2022-10-30T10:12:51.229Z,17.90
2022-10-30T10:15:21.083Z,18.00
2022-10-30T10:17:47.925Z,18.20
2022-10-30T10:20:35.106Z,18.20
2022-10-30T10:23:04.729Z,18.30
2022-10-30T10:25:31.414Z,18.40
2022-10-30T10:28:03.597Z,18.40
2022-10-30T10:30:39.273Z,18.40
2022-10-30T10:33:24.121Z,18.50
2022-10-30T10:35:50.943Z,18.60
2022-10-30T10:38:17.678Z,18.60
2022-10-30T10:40:54.038Z,18.60
2022-10-30T10:43:35.796Z,18.70
2022-10-30T10:46:20.535Z,18.70
2022-10-30T10:49:11.546Z,18.80
2022-10-30T10:51:39.755Z,18.80
2022-10-30T10:54:12.476Z,18.80
2022-10-30T10:56:40.708Z,18.80
2022-10-30T10:59:13.822Z,18.90
2022-10-30T11:01:42.834Z,18.90
2022-10-30T11:04:24.175Z,18.90
2022-10-30T11:06:51.776Z,19.00
2022-10-30T11:09:20.074Z,19.00
2022-10-30T11:11:47.429Z,19.00
2022-10-30T11:14:15.405Z,19.10
2022-10-30T11:17:00.580Z,19.10
2022-10-30T11:19:28.385Z,19.20
2022-10-30T11:21:55.577Z,19.20
2022-10-30T11:24:27.395Z,19.20
2022-10-30T11:26:56.637Z,19.30
2022-10-30T11:29:24.758Z,19.30
2022-10-30T11:32:02.049Z,19.30
2022-10-30T11:34:31.750Z,19.40
2022-10-30T11:36:58.319Z,19.40
2022-10-30T11:39:27.054Z,19.50
2022-10-30T11:42:01.800Z,19.70
2022-10-30T11:44:35.165Z,19.80
2022-10-30T11:47:02.320Z,20.00
2022-10-30T11:49:44.935Z,20.20
2022-10-30T11:52:14.291Z,20.40
2022-10-30T11:54:44.699Z,20.50
2022-10-30T11:57:31.666Z,20.60
2022-10-30T12:00:04.640Z,20.60
2022-10-30T12:02:40.008Z,20.60
2022-10-30T12:05:26.481Z,20.60
2022-10-30T12:07:53.757Z,20.60
2022-10-30T12:10:27.813Z,20.60
2022-10-30T12:12:54.689Z,20.60
2022-10-30T12:15:25.300Z,20.60
2022-10-30T12:18:02.402Z,20.50
2022-10-30T12:20:29.245Z,20.60
2022-10-30T12:22:56.013Z,20.60
2022-10-30T12:25:27.693Z,20.60
2022-10-30T12:28:20.273Z,20.60
2022-10-30T12:30:46.783Z,20.50
2022-10-30T12:33:36.556Z,20.60
2022-10-30T12:36:07.131Z,20.60
2022-10-30T12:38:36.837Z,20.60
2022-10-30T12:41:06.557Z,20.60
2022-10-30T12:43:35.543Z,20.60
2022-10-30T12:46:13.013Z,20.60
2022-10-30T12:48:43.885Z,20.60
2022-10-30T12:51:14.952Z,20.60
2022-10-30T12:53:48.565Z,20.50
2022-10-30T12:56:19.560Z,20.60
2022-10-30T12:58:46.077Z,20.60
2022-10-30T13:01:27.149Z,20.60
2022-10-30T13:03:57.200Z,20.60
2022-10-30T13:06:26.148Z,20.70
2022-10-30T13:09:12.764Z,20.70
2022-10-30T13:11:45.602Z,20.70
2022-10-30T13:14:15.648Z,20.70
2022-10-30T13:16:42.426Z,20.80
2022-10-30T13:19:10.872Z,20.80
2022-10-30T13:21:49.080Z,20.90
2022-10-30T13:24:18.213Z,20.90
2022-10-30T13:26:50.341Z,20.90
2022-10-30T13:29:22.775Z,21.00
2022-10-30T13:31:58.361Z,20.90
2022-10-30T13:34:28.810Z,20.90
2022-10-30T13:37:08.311Z,20.90
2022-10-30T13:39:51.606Z,20.90
2022-10-30T13:42:37.397Z,20.90
2022-10-30T13:45:27.394Z,20.90
2022-10-30T13:48:06.283Z,21.00
2022-10-30T13:50:40.304Z,21.00
2022-10-30T13:53:11.648Z,20.90
2022-10-30T13:55:40.044Z,20.80
2022-10-30T13:58:14.038Z,20.90
2022-10-30T14:00:43.252Z,20.90
2022-10-30T14:03:20.730Z,20.80
2022-10-30T14:05:56.637Z,20.80
2022-10-30T14:08:41.674Z,20.80
2022-10-30T14:11:11.902Z,20.80
2022-10-30T14:13:58.141Z,20.80
2022-10-30T14:16:43.369Z,20.80
2022-10-30T14:19:13.881Z,20.70
2022-10-30T14:21:42.239Z,20.70
2022-10-30T14:24:16.826Z,20.70
2022-10-30T14:26:54.483Z,20.70
2022-10-30T14:29:29.934Z,20.70
2022-10-30T14:31:58.065Z,20.70
2022-10-30T14:34:44.139Z,20.80
2022-10-30T14:37:11.035Z,20.80
2022-10-30T14:39:41.617Z,20.80
2022-10-30T14:42:23.129Z,20.80
2022-10-30T14:44:55.744Z,20.90
2022-10-30T14:47:39.524Z,20.90
2022-10-30T14:50:11.834Z,20.90
2022-10-30T14:52:47.897Z,20.90
2022-10-30T14:55:29.151Z,20.80
2022-10-30T14:58:01.784Z,20.80
2022-10-30T15:00:42.102Z,20.70
2022-10-30T15:03:29.002Z,20.70
2022-10-30T15:06:01.248Z,20.60
2022-10-30T15:08:42.357Z,20.50
2022-10-30T15:11:19.669Z,20.40
2022-10-30T15:13:51.425Z,20.40
2022-10-30T15:16:19.576Z,20.30
2022-10-30T15:18:48.070Z,20.20
2022-10-30T15:21:20.344Z,20.20
2022-10-30T15:23:47.101Z,20.10
2022-10-30T15:26:21.402Z,20.10
2022-10-30T15:28:50.101Z,20.10
2022-10-30T15:31:26.953Z,20.00
2022-10-30T15:33:54.377Z,20.00
2022-10-30T15:36:25.988Z,19.90
2022-10-30T15:39:22.193Z,19.90
2022-10-30T15:41:50.569Z,19.80
2022-10-30T15:44:31.003Z,19.80
2022-10-30T15:47:03.819Z,19.70
2022-10-30T15:49:32.039Z,19.60
2022-10-30T15:52:02.902Z,19.60
2022-10-30T15:54:30.664Z,19.60
2022-10-30T15:57:36.522Z,19.50
2022-10-30T15:59:49.865Z,19.50
2022-10-30T16:02:24.376Z,19.30
2022-10-30T16:04:51.068Z,19.30
2022-10-30T16:07:20.071Z,19.20
2022-10-30T16:09:56.707Z,19.10
2022-10-30T16:12:24.259Z,19.10
2022-10-30T16:14:51.948Z,19.00
2022-10-30T16:17:19.211Z,18.90
